sensor_id;sensor_type;location;lat;lon;timestamp;temperature;humidity
2022;DHT22;1015;49.756;6.994;2023-02-15T00:01:27;-1.20;99.90
2022;DHT22;1015;49.756;6.994;2023-02-15T00:03:54;-1.10;99.90
2022;DHT22;1015;49.756;6.994;2023-02-15T00:06:22;-1.20;99.90
2022;DHT22;1015;49.756;6.994;2023-02-15T00:08:50;-1.30;99.90
2022;DHT22;1015;49.756;6.994;2023-02-15T00:11:18;-1.30;99.90
2022;DHT22;1015;49.756;6.994;2023-02-15T00:14:06;-1.30;99.90
2022;DHT22;1015;49.756;6.994;2023-02-15T00:16:33;-1.40;99.90
2022;DHT22;1015;49.756;6.994;2023-02-15T00:19:00;-1.50;99.90
2022;DHT22;1015;49.756;6.994;2023-02-15T00:21:29;-1.30;99.90
2022;DHT22;1015;49.756;6.994;2023-02-15T00:23:58;-1.40;99.90
2022;DHT22;1015;49.756;6.994;2023-02-15T00:26:26;-1.20;99.90
2022;DHT22;1015;49.756;6.994;2023-02-15T00:28:53;-1.30;99.90
2022;DHT22;1015;49.756;6.994;2023-02-15T00:31:20;-1.50;99.90
2022;DHT22;1015;49.756;6.994;2023-02-15T00:33:47;-1.40;99.90
2022;DHT22;1015;49.756;6.994;2023-02-15T00:36:14;-1.60;99.90
2022;DHT22;1015;49.756;6.994;2023-02-15T00:38:42;-1.60;99.90
2022;DHT22;1015;49.756;6.994;2023-02-15T00:41:10;-1.70;99.90
2022;DHT22;1015;49.756;6.994;2023-02-15T00:43:37;-1.60;99.90
2022;DHT22;1015;49.756;6.994;2023-02-15T00:46:05;-1.60;99.90
2022;DHT22;1015;49.756;6.994;2023-02-15T00:48:32;-1.50;99.90
2022;DHT22;1015;49.756;6.994;2023-02-15T00:50:59;-1.40;99.90
2022;DHT22;1015;49.756;6.994;2023-02-15T00:53:27;-1.60;99.90
2022;DHT22;1015;49.756;6.994;2023-02-15T00:55:56;-1.60;99.90
2022;DHT22;1015;49.756;6.994;2023-02-15T00:58:23;0.80;99.90
2022;DHT22;1015;49.756;6.994;2023-02-15T01:00:50;0.40;99.90
2022;DHT22;1015;49.756;6.994;2023-02-15T01:03:19;0.00;99.90
2022;DHT22;1015;49.756;6.994;2023-02-15T01:05:47;-0.40;99.90
2022;DHT22;1015;49.756;6.994;2023-02-15T01:08:15;-0.70;99.90
2022;DHT22;1015;49.756;6.994;2023-02-15T01:10:42;-0.90;99.90
2022;DHT22;1015;49.756;6.994;2023-02-15T01:13:13;-1.10;99.90
2022;DHT22;1015;49.756;6.994;2023-02-15T01:15:40;-1.30;99.90
2022;DHT22;1015;49.756;6.994;2023-02-15T01:18:07;-1.60;99.90
2022;DHT22;1015;49.756;6.994;2023-02-15T01:20:35;-1.50;99.90
2022;DHT22;1015;49.756;6.994;2023-02-15T01:23:05;-1.50;99.90
2022;DHT22;1015;49.756;6.994;2023-02-15T01:25:33;-1.30;99.90
2022;DHT22;1015;49.756;6.994;2023-02-15T01:28:01;-1.40;99.90
2022;DHT22;1015;49.756;6.994;2023-02-15T01:30:29;-1.20;99.90
2022;DHT22;1015;49.756;6.994;2023-02-15T01:32:56;-1.10;99.90
2022;DHT22;1015;49.756;6.994;2023-02-15T01:35:24;-1.20;99.90
2022;DHT22;1015;49.756;6.994;2023-02-15T01:37:51;-1.50;99.90
2022;DHT22;1015;49.756;6.994;2023-02-15T01:40:18;-1.50;99.90
2022;DHT22;1015;49.756;6.994;2023-02-15T01:42:45;-1.40;99.90
2022;DHT22;1015;49.756;6.994;2023-02-15T01:45:20;-1.30;99.90
2022;DHT22;1015;49.756;6.994;2023-02-15T01:47:53;-1.20;99.90
2022;DHT22;1015;49.756;6.994;2023-02-15T01:50:24;-1.30;99.90
2022;DHT22;1015;49.756;6.994;2023-02-15T01:52:55;-1.50;99.90
2022;DHT22;1015;49.756;6.994;2023-02-15T01:55:25;-1.40;99.90
2022;DHT22;1015;49.756;6.994;2023-02-15T01:57:53;-1.40;99.90
2022;DHT22;1015;49.756;6.994;2023-02-15T02:00:21;-1.40;99.90
2022;DHT22;1015;49.756;6.994;2023-02-15T02:02:53;-1.50;99.90
2022;DHT22;1015;49.756;6.994;2023-02-15T02:05:20;-1.50;99.90
2022;DHT22;1015;49.756;6.994;2023-02-15T02:07:50;-1.50;99.90
2022;DHT22;1015;49.756;6.994;2023-02-15T02:10:20;-1.50;99.90
2022;DHT22;1015;49.756;6.994;2023-02-15T02:12:50;-1.40;99.90
2022;DHT22;1015;49.756;6.994;2023-02-15T02:15:18;-1.30;99.90
2022;DHT22;1015;49.756;6.994;2023-02-15T02:17:58;-1.40;99.90
2022;DHT22;1015;49.756;6.994;2023-02-15T02:20:51;-1.50;99.90
2022;DHT22;1015;49.756;6.994;2023-02-15T02:23:27;-1.70;99.90
2022;DHT22;1015;49.756;6.994;2023-02-15T02:29:24;-1.40;99.90
2022;DHT22;1015;49.756;6.994;2023-02-15T02:32:18;-1.40;99.90
2022;DHT22;1015;49.756;6.994;2023-02-15T02:34:53;-1.10;99.90
2022;DHT22;1015;49.756;6.994;2023-02-15T02:37:24;-1.20;99.90
2022;DHT22;1015;49.756;6.994;2023-02-15T02:39:59;-1.40;99.90
2022;DHT22;1015;49.756;6.994;2023-02-15T02:42:35;-1.50;99.90
2022;DHT22;1015;49.756;6.994;2023-02-15T02:45:05;-1.90;99.90
2022;DHT22;1015;49.756;6.994;2023-02-15T02:47:36;-1.80;99.90
2022;DHT22;1015;49.756;6.994;2023-02-15T02:50:12;-1.00;99.90
2022;DHT22;1015;49.756;6.994;2023-02-15T02:52:41;-1.20;99.90
2022;DHT22;1015;49.756;6.994;2023-02-15T02:55:12;-1.50;99.90
2022;DHT22;1015;49.756;6.994;2023-02-15T02:57:46;-1.70;99.90
2022;DHT22;1015;49.756;6.994;2023-02-15T03:00:15;-1.80;99.90
2022;DHT22;1015;49.756;6.994;2023-02-15T03:02:45;-1.80;99.90
2022;DHT22;1015;49.756;6.994;2023-02-15T03:05:16;-1.80;99.90
2022;DHT22;1015;49.756;6.994;2023-02-15T03:07:49;-1.80;99.90
2022;DHT22;1015;49.756;6.994;2023-02-15T03:10:18;-2.10;99.90
2022;DHT22;1015;49.756;6.994;2023-02-15T03:12:46;-1.80;99.90
2022;DHT22;1015;49.756;6.994;2023-02-15T03:15:16;-1.60;99.90
2022;DHT22;1015;49.756;6.994;2023-02-15T03:17:48;-1.80;99.90
2022;DHT22;1015;49.756;6.994;2023-02-15T03:20:20;-2.00;99.90
2022;DHT22;1015;49.756;6.994;2023-02-15T03:22:54;-1.70;99.90
2022;DHT22;1015;49.756;6.994;2023-02-15T03:25:24;-1.50;99.90
2022;DHT22;1015;49.756;6.994;2023-02-15T03:27:54;-1.10;99.90
2022;DHT22;1015;49.756;6.994;2023-02-15T03:30:22;-1.80;99.90
2022;DHT22;1015;49.756;6.994;2023-02-15T03:32:51;-1.80;99.90
2022;DHT22;1015;49.756;6.994;2023-02-15T03:35:23;-1.80;99.90
2022;DHT22;1015;49.756;6.994;2023-02-15T03:37:54;-1.80;99.90
2022;DHT22;1015;49.756;6.994;2023-02-15T03:40:26;-1.70;99.90
2022;DHT22;1015;49.756;6.994;2023-02-15T03:43:32;-1.80;99.90
2022;DHT22;1015;49.756;6.994;2023-02-15T03:46:05;-1.70;99.90
2022;DHT22;1015;49.756;6.994;2023-02-15T03:48:37;-1.70;99.90
2022;DHT22;1015;49.756;6.994;2023-02-15T03:51:09;-1.60;99.90
2022;DHT22;1015;49.756;6.994;2023-02-15T03:53:56;-1.70;99.90
2022;DHT22;1015;49.756;6.994;2023-02-15T03:56:24;-1.70;99.90
2022;DHT22;1015;49.756;6.994;2023-02-15T03:58:51;-1.50;99.90
2022;DHT22;1015;49.756;6.994;2023-02-15T04:01:40;-1.30;99.90
2022;DHT22;1015;49.756;6.994;2023-02-15T04:04:28;-1.30;99.90
2022;DHT22;1015;49.756;6.994;2023-02-15T04:06:59;-1.40;99.90
2022;DHT22;1015;49.756;6.994;2023-02-15T04:09:26;-1.50;99.90
2022;DHT22;1015;49.756;6.994;2023-02-15T04:12:10;-1.50;99.90
2022;DHT22;1015;49.756;6.994;2023-02-15T04:14:37;-1.60;99.90
2022;DHT22;1015;49.756;6.994;2023-02-15T04:17:21;-1.70;99.90
2022;DHT22;1015;49.756;6.994;2023-02-15T04:19:48;-1.90;99.90
2022;DHT22;1015;49.756;6.994;2023-02-15T04:22:34;-2.00;99.90
2022;DHT22;1015;49.756;6.994;2023-02-15T04:25:19;-1.90;99.90
2022;DHT22;1015;49.756;6.994;2023-02-15T04:27:47;-2.00;99.90
2022;DHT22;1015;49.756;6.994;2023-02-15T04:30:16;-2.00;99.90
2022;DHT22;1015;49.756;6.994;2023-02-15T04:32:43;-1.70;99.90
2022;DHT22;1015;49.756;6.994;2023-02-15T04:35:10;-1.90;99.90
2022;DHT22;1015;49.756;6.994;2023-02-15T04:37:40;-1.90;99.90
2022;DHT22;1015;49.756;6.994;2023-02-15T04:40:08;-2.10;99.90
2022;DHT22;1015;49.756;6.994;2023-02-15T04:42:36;-2.20;99.90
2022;DHT22;1015;49.756;6.994;2023-02-15T04:45:03;-2.10;99.90
2022;DHT22;1015;49.756;6.994;2023-02-15T04:47:30;-1.30;99.90
2022;DHT22;1015;49.756;6.994;2023-02-15T04:49:57;-1.60;99.90
2022;DHT22;1015;49.756;6.994;2023-02-15T04:52:24;-0.80;99.90
2022;DHT22;1015;49.756;6.994;2023-02-15T04:54:52;-1.00;99.90
2022;DHT22;1015;49.756;6.994;2023-02-15T04:57:19;-1.40;99.90
2022;DHT22;1015;49.756;6.994;2023-02-15T04:59:46;-1.70;99.90
2022;DHT22;1015;49.756;6.994;2023-02-15T05:02:13;-1.90;99.90
2022;DHT22;1015;49.756;6.994;2023-02-15T05:04:40;-2.20;99.90
2022;DHT22;1015;49.756;6.994;2023-02-15T05:07:07;-2.30;99.90
2022;DHT22;1015;49.756;6.994;2023-02-15T05:09:34;-2.20;99.90
2022;DHT22;1015;49.756;6.994;2023-02-15T05:12:02;-2.40;99.90
2022;DHT22;1015;49.756;6.994;2023-02-15T05:14:29;-2.10;99.90
2022;DHT22;1015;49.756;6.994;2023-02-15T05:16:56;-2.00;99.90
2022;DHT22;1015;49.756;6.994;2023-02-15T05:19:26;-1.70;99.90
2022;DHT22;1015;49.756;6.994;2023-02-15T05:21:53;-1.30;99.90
2022;DHT22;1015;49.756;6.994;2023-02-15T05:24:20;-1.00;99.90
2022;DHT22;1015;49.756;6.994;2023-02-15T05:27:06;-1.30;99.90
2022;DHT22;1015;49.756;6.994;2023-02-15T05:29:50;-1.70;99.90
2022;DHT22;1015;49.756;6.994;2023-02-15T05:32:17;-1.90;99.90
2022;DHT22;1015;49.756;6.994;2023-02-15T05:34:44;-2.00;99.90
2022;DHT22;1015;49.756;6.994;2023-02-15T05:37:11;-2.20;99.90
2022;DHT22;1015;49.756;6.994;2023-02-15T05:39:38;-2.40;99.90
2022;DHT22;1015;49.756;6.994;2023-02-15T05:42:06;-2.30;99.90
2022;DHT22;1015;49.756;6.994;2023-02-15T05:44:33;-2.30;99.90
2022;DHT22;1015;49.756;6.994;2023-02-15T05:47:00;-2.30;99.90
2022;DHT22;1015;49.756;6.994;2023-02-15T05:49:28;-2.30;99.90
2022;DHT22;1015;49.756;6.994;2023-02-15T05:51:56;-2.50;99.90
2022;DHT22;1015;49.756;6.994;2023-02-15T05:54:23;-2.40;99.90
2022;DHT22;1015;49.756;6.994;2023-02-15T05:56:49;-2.80;99.90
2022;DHT22;1015;49.756;6.994;2023-02-15T05:59:18;-2.70;99.90
2022;DHT22;1015;49.756;6.994;2023-02-15T06:01:45;-2.50;99.90
2022;DHT22;1015;49.756;6.994;2023-02-15T06:04:12;-2.60;99.90
2022;DHT22;1015;49.756;6.994;2023-02-15T06:06:39;-2.20;99.90
2022;DHT22;1015;49.756;6.994;2023-02-15T06:09:06;-1.30;99.90
2022;DHT22;1015;49.756;6.994;2023-02-15T06:11:33;0.00;99.90
2022;DHT22;1015;49.756;6.994;2023-02-15T06:14:00;0.20;99.90
2022;DHT22;1015;49.756;6.994;2023-02-15T06:16:28;0.00;99.90
2022;DHT22;1015;49.756;6.994;2023-02-15T06:18:55;-0.60;99.90
2022;DHT22;1015;49.756;6.994;2023-02-15T06:21:24;-1.10;99.90
2022;DHT22;1015;49.756;6.994;2023-02-15T06:23:51;-1.40;99.90
2022;DHT22;1015;49.756;6.994;2023-02-15T06:26:18;-1.60;99.90
2022;DHT22;1015;49.756;6.994;2023-02-15T06:28:45;-1.70;99.90
2022;DHT22;1015;49.756;6.994;2023-02-15T06:31:12;-1.80;99.90
2022;DHT22;1015;49.756;6.994;2023-02-15T06:33:40;-2.10;99.90
2022;DHT22;1015;49.756;6.994;2023-02-15T06:36:07;-2.30;99.90
2022;DHT22;1015;49.756;6.994;2023-02-15T06:38:34;-2.80;99.90
2022;DHT22;1015;49.756;6.994;2023-02-15T06:41:01;-3.00;99.90
2022;DHT22;1015;49.756;6.994;2023-02-15T06:43:28;-3.00;99.90
2022;DHT22;1015;49.756;6.994;2023-02-15T06:45:55;-2.70;99.90
2022;DHT22;1015;49.756;6.994;2023-02-15T06:48:21;-2.60;99.90
2022;DHT22;1015;49.756;6.994;2023-02-15T06:50:50;-1.80;99.90
2022;DHT22;1015;49.756;6.994;2023-02-15T06:53:17;-1.50;99.90
2022;DHT22;1015;49.756;6.994;2023-02-15T06:55:43;-1.00;99.90
2022;DHT22;1015;49.756;6.994;2023-02-15T06:58:10;-0.90;99.90
2022;DHT22;1015;49.756;6.994;2023-02-15T07:00:37;-0.70;99.90
2022;DHT22;1015;49.756;6.994;2023-02-15T07:03:04;-0.80;99.90
2022;DHT22;1015;49.756;6.994;2023-02-15T07:05:33;-0.80;99.90
2022;DHT22;1015;49.756;6.994;2023-02-15T07:08:02;-0.70;99.90
2022;DHT22;1015;49.756;6.994;2023-02-15T07:10:29;-0.50;99.90
2022;DHT22;1015;49.756;6.994;2023-02-15T07:12:56;-0.70;99.90
2022;DHT22;1015;49.756;6.994;2023-02-15T07:15:22;-1.10;99.90
2022;DHT22;1015;49.756;6.994;2023-02-15T07:17:49;-1.40;99.90
2022;DHT22;1015;49.756;6.994;2023-02-15T07:20:18;-1.60;99.90
2022;DHT22;1015;49.756;6.994;2023-02-15T07:22:45;-1.60;99.90
2022;DHT22;1015;49.756;6.994;2023-02-15T07:25:13;-1.60;99.90
2022;DHT22;1015;49.756;6.994;2023-02-15T07:27:40;-1.40;99.90
2022;DHT22;1015;49.756;6.994;2023-02-15T07:30:10;-1.40;99.90
2022;DHT22;1015;49.756;6.994;2023-02-15T07:32:37;-1.10;99.90
2022;DHT22;1015;49.756;6.994;2023-02-15T07:35:25;-1.00;99.90
2022;DHT22;1015;49.756;6.994;2023-02-15T07:37:51;-0.90;99.90
2022;DHT22;1015;49.756;6.994;2023-02-15T07:40:20;-0.70;99.90
2022;DHT22;1015;49.756;6.994;2023-02-15T07:42:49;-0.60;99.90
2022;DHT22;1015;49.756;6.994;2023-02-15T07:45:18;-0.30;99.90
2022;DHT22;1015;49.756;6.994;2023-02-15T07:47:45;-0.10;99.90
2022;DHT22;1015;49.756;6.994;2023-02-15T07:50:12;0.00;99.90
2022;DHT22;1015;49.756;6.994;2023-02-15T07:52:39;0.10;99.90
2022;DHT22;1015;49.756;6.994;2023-02-15T07:55:06;0.20;99.90
2022;DHT22;1015;49.756;6.994;2023-02-15T07:57:35;0.40;99.90
2022;DHT22;1015;49.756;6.994;2023-02-15T08:00:03;0.40;99.90
2022;DHT22;1015;49.756;6.994;2023-02-15T08:02:30;0.50;99.90
2022;DHT22;1015;49.756;6.994;2023-02-15T08:04:56;0.80;99.90
2022;DHT22;1015;49.756;6.994;2023-02-15T08:07:23;0.90;99.90
2022;DHT22;1015;49.756;6.994;2023-02-15T08:09:50;1.00;99.90
2022;DHT22;1015;49.756;6.994;2023-02-15T08:12:18;1.10;99.90
2022;DHT22;1015;49.756;6.994;2023-02-15T08:14:47;1.20;99.90
2022;DHT22;1015;49.756;6.994;2023-02-15T08:17:14;1.20;99.90
2022;DHT22;1015;49.756;6.994;2023-02-15T08:19:41;1.30;99.90
2022;DHT22;1015;49.756;6.994;2023-02-15T08:22:12;1.40;99.90
2022;DHT22;1015;49.756;6.994;2023-02-15T08:24:39;1.60;99.90
2022;DHT22;1015;49.756;6.994;2023-02-15T08:27:09;1.80;99.90
2022;DHT22;1015;49.756;6.994;2023-02-15T08:29:37;1.90;99.90
2022;DHT22;1015;49.756;6.994;2023-02-15T08:32:08;2.10;99.90
2022;DHT22;1015;49.756;6.994;2023-02-15T08:34:37;2.10;99.90
2022;DHT22;1015;49.756;6.994;2023-02-15T08:37:04;2.40;99.90
2022;DHT22;1015;49.756;6.994;2023-02-15T08:39:32;2.60;99.90
2022;DHT22;1015;49.756;6.994;2023-02-15T08:41:59;3.00;99.90
2022;DHT22;1015;49.756;6.994;2023-02-15T08:44:26;3.30;99.90
2022;DHT22;1015;49.756;6.994;2023-02-15T08:46:53;3.60;99.90
2022;DHT22;1015;49.756;6.994;2023-02-15T08:49:24;4.40;99.90
2022;DHT22;1015;49.756;6.994;2023-02-15T08:51:51;5.10;99.90
2022;DHT22;1015;49.756;6.994;2023-02-15T08:54:20;5.40;99.90
2022;DHT22;1015;49.756;6.994;2023-02-15T08:56:47;5.60;99.90
2022;DHT22;1015;49.756;6.994;2023-02-15T08:59:16;6.20;99.90
2022;DHT22;1015;49.756;6.994;2023-02-15T09:01:44;6.30;99.90
2022;DHT22;1015;49.756;6.994;2023-02-15T09:04:11;6.30;99.90
2022;DHT22;1015;49.756;6.994;2023-02-15T09:06:41;6.60;99.90
2022;DHT22;1015;49.756;6.994;2023-02-15T09:09:08;7.00;99.90
2022;DHT22;1015;49.756;6.994;2023-02-15T09:11:37;6.80;99.90
2022;DHT22;1015;49.756;6.994;2023-02-15T09:14:05;6.60;99.90
2022;DHT22;1015;49.756;6.994;2023-02-15T09:16:36;6.60;99.90
2022;DHT22;1015;49.756;6.994;2023-02-15T09:19:04;6.80;99.90
2022;DHT22;1015;49.756;6.994;2023-02-15T09:21:33;6.90;99.90
2022;DHT22;1015;49.756;6.994;2023-02-15T09:24:04;7.00;99.90
2022;DHT22;1015;49.756;6.994;2023-02-15T09:26:33;7.10;99.90
2022;DHT22;1015;49.756;6.994;2023-02-15T09:29:01;7.30;99.90
2022;DHT22;1015;49.756;6.994;2023-02-15T09:31:30;7.30;99.90
2022;DHT22;1015;49.756;6.994;2023-02-15T09:33:59;7.50;99.90
2022;DHT22;1015;49.756;6.994;2023-02-15T09:36:29;7.60;99.90
2022;DHT22;1015;49.756;6.994;2023-02-15T09:38:57;7.70;99.90
2022;DHT22;1015;49.756;6.994;2023-02-15T09:41:40;7.70;99.90
2022;DHT22;1015;49.756;6.994;2023-02-15T09:44:16;7.80;99.90
2022;DHT22;1015;49.756;6.994;2023-02-15T09:47:06;7.60;99.90
2022;DHT22;1015;49.756;6.994;2023-02-15T09:49:48;7.80;99.90
2022;DHT22;1015;49.756;6.994;2023-02-15T09:52:44;8.00;99.90
2022;DHT22;1015;49.756;6.994;2023-02-15T09:55:23;8.00;99.90
2022;DHT22;1015;49.756;6.994;2023-02-15T09:57:57;8.00;99.90
2022;DHT22;1015;49.756;6.994;2023-02-15T10:00:34;8.10;99.90
2022;DHT22;1015;49.756;6.994;2023-02-15T10:03:22;8.30;99.90
2022;DHT22;1015;49.756;6.994;2023-02-15T10:06:03;8.30;99.90
2022;DHT22;1015;49.756;6.994;2023-02-15T10:11:43;8.30;99.90
2022;DHT22;1015;49.756;6.994;2023-02-15T10:17:24;8.30;99.90
2022;DHT22;1015;49.756;6.994;2023-02-15T10:20:06;8.50;99.90
2022;DHT22;1015;49.756;6.994;2023-02-15T10:22:42;8.50;99.90
2022;DHT22;1015;49.756;6.994;2023-02-15T10:25:24;8.50;99.90
2022;DHT22;1015;49.756;6.994;2023-02-15T10:27:58;8.50;99.90
2022;DHT22;1015;49.756;6.994;2023-02-15T10:30:34;8.50;99.90
2022;DHT22;1015;49.756;6.994;2023-02-15T10:33:14;8.60;99.90
2022;DHT22;1015;49.756;6.994;2023-02-15T10:35:47;8.50;99.90
2022;DHT22;1015;49.756;6.994;2023-02-15T10:38:22;8.60;99.90
2022;DHT22;1015;49.756;6.994;2023-02-15T10:41:04;8.60;99.90
2022;DHT22;1015;49.756;6.994;2023-02-15T10:43:45;8.70;99.90
2022;DHT22;1015;49.756;6.994;2023-02-15T10:46:23;8.90;99.90
2022;DHT22;1015;49.756;6.994;2023-02-15T10:49:08;8.90;99.90
2022;DHT22;1015;49.756;6.994;2023-02-15T10:51:45;9.00;99.90
2022;DHT22;1015;49.756;6.994;2023-02-15T10:54:22;9.00;99.90
2022;DHT22;1015;49.756;6.994;2023-02-15T10:57:01;9.00;99.90
2022;DHT22;1015;49.756;6.994;2023-02-15T10:59:42;8.90;99.90
2022;DHT22;1015;49.756;6.994;2023-02-15T11:02:20;8.60;99.90
2022;DHT22;1015;49.756;6.994;2023-02-15T11:05:00;8.80;99.90
2022;DHT22;1015;49.756;6.994;2023-02-15T11:07:33;9.00;99.90
2022;DHT22;1015;49.756;6.994;2023-02-15T11:10:11;9.00;99.90
2022;DHT22;1015;49.756;6.994;2023-02-15T11:12:42;9.00;99.90
2022;DHT22;1015;49.756;6.994;2023-02-15T11:15:15;8.90;99.90
2022;DHT22;1015;49.756;6.994;2023-02-15T11:17:49;8.80;99.90
2022;DHT22;1015;49.756;6.994;2023-02-15T11:20:24;8.70;99.90
2022;DHT22;1015;49.756;6.994;2023-02-15T11:22:52;8.80;99.90
2022;DHT22;1015;49.756;6.994;2023-02-15T11:25:23;9.00;99.90
2022;DHT22;1015;49.756;6.994;2023-02-15T11:27:52;9.20;99.90
2022;DHT22;1015;49.756;6.994;2023-02-15T11:30:21;9.20;99.90
2022;DHT22;1015;49.756;6.994;2023-02-15T11:32:51;9.40;99.90
2022;DHT22;1015;49.756;6.994;2023-02-15T11:35:26;9.60;99.90
2022;DHT22;1015;49.756;6.994;2023-02-15T11:37:58;9.30;99.90
2022;DHT22;1015;49.756;6.994;2023-02-15T11:40:31;9.30;99.90
2022;DHT22;1015;49.756;6.994;2023-02-15T11:43:03;9.30;99.90
2022;DHT22;1015;49.756;6.994;2023-02-15T11:45:32;9.50;99.90
2022;DHT22;1015;49.756;6.994;2023-02-15T11:48:00;9.50;99.90
2022;DHT22;1015;49.756;6.994;2023-02-15T11:50:31;9.60;99.90
2022;DHT22;1015;49.756;6.994;2023-02-15T11:53:01;9.80;99.90
2022;DHT22;1015;49.756;6.994;2023-02-15T11:55:29;9.90;99.90
2022;DHT22;1015;49.756;6.994;2023-02-15T11:58:00;10.00;99.90
2022;DHT22;1015;49.756;6.994;2023-02-15T12:00:34;10.00;99.90
2022;DHT22;1015;49.756;6.994;2023-02-15T12:03:09;10.20;99.90
2022;DHT22;1015;49.756;6.994;2023-02-15T12:05:43;10.10;99.90
2022;DHT22;1015;49.756;6.994;2023-02-15T12:08:16;10.10;99.90
2022;DHT22;1015;49.756;6.994;2023-02-15T12:10:56;10.10;99.90
2022;DHT22;1015;49.756;6.994;2023-02-15T12:13:23;10.30;99.90
2022;DHT22;1015;49.756;6.994;2023-02-15T12:15:53;10.40;99.90
2022;DHT22;1015;49.756;6.994;2023-02-15T12:18:33;10.50;99.90
2022;DHT22;1015;49.756;6.994;2023-02-15T12:21:05;10.50;99.90
2022;DHT22;1015;49.756;6.994;2023-02-15T12:23:34;10.50;99.90
2022;DHT22;1015;49.756;6.994;2023-02-15T12:26:02;10.50;99.90
2022;DHT22;1015;49.756;6.994;2023-02-15T12:28:32;10.50;99.90
2022;DHT22;1015;49.756;6.994;2023-02-15T12:31:01;10.50;99.90
2022;DHT22;1015;49.756;6.994;2023-02-15T12:33:30;10.60;99.90
2022;DHT22;1015;49.756;6.994;2023-02-15T12:36:03;10.60;99.90
2022;DHT22;1015;49.756;6.994;2023-02-15T12:38:36;10.60;99.90
2022;DHT22;1015;49.756;6.994;2023-02-15T12:41:04;10.60;99.90
2022;DHT22;1015;49.756;6.994;2023-02-15T12:43:33;10.50;99.90
2022;DHT22;1015;49.756;6.994;2023-02-15T12:46:24;10.60;99.90
2022;DHT22;1015;49.756;6.994;2023-02-15T12:49:11;10.80;99.90
2022;DHT22;1015;49.756;6.994;2023-02-15T12:51:49;10.90;99.90
2022;DHT22;1015;49.756;6.994;2023-02-15T12:54:32;10.90;99.90
2022;DHT22;1015;49.756;6.994;2023-02-15T12:57:14;10.80;99.90
2022;DHT22;1015;49.756;6.994;2023-02-15T12:59:48;10.80;99.90
2022;DHT22;1015;49.756;6.994;2023-02-15T13:02:23;10.80;99.90
2022;DHT22;1015;49.756;6.994;2023-02-15T13:04:51;10.90;99.90
2022;DHT22;1015;49.756;6.994;2023-02-15T13:07:20;10.80;99.90
2022;DHT22;1015;49.756;6.994;2023-02-15T13:09:48;10.90;99.90
2022;DHT22;1015;49.756;6.994;2023-02-15T13:12:20;11.00;99.90
2022;DHT22;1015;49.756;6.994;2023-02-15T13:14:49;10.90;99.90
2022;DHT22;1015;49.756;6.994;2023-02-15T13:17:21;10.90;99.90
2022;DHT22;1015;49.756;6.994;2023-02-15T13:19:55;11.00;99.90
2022;DHT22;1015;49.756;6.994;2023-02-15T13:22:27;11.00;99.90
2022;DHT22;1015;49.756;6.994;2023-02-15T13:24:58;11.10;99.90
2022;DHT22;1015;49.756;6.994;2023-02-15T13:27:31;11.20;99.90
2022;DHT22;1015;49.756;6.994;2023-02-15T13:30:03;11.20;99.90
2022;DHT22;1015;49.756;6.994;2023-02-15T13:32:34;11.20;99.90
2022;DHT22;1015;49.756;6.994;2023-02-15T13:35:04;11.00;99.90
2022;DHT22;1015;49.756;6.994;2023-02-15T13:38:05;10.60;99.90
2022;DHT22;1015;49.756;6.994;2023-02-15T13:40:37;10.50;99.90
2022;DHT22;1015;49.756;6.994;2023-02-15T13:43:19;10.20;99.90
2022;DHT22;1015;49.756;6.994;2023-02-15T13:46:00;10.40;99.90
2022;DHT22;1015;49.756;6.994;2023-02-15T13:48:37;10.30;99.90
2022;DHT22;1015;49.756;6.994;2023-02-15T13:51:13;10.30;99.90
2022;DHT22;1015;49.756;6.994;2023-02-15T13:54:24;10.30;99.90
2022;DHT22;1015;49.756;6.994;2023-02-15T13:57:01;10.60;99.90
2022;DHT22;1015;49.756;6.994;2023-02-15T14:00:08;10.70;99.90
2022;DHT22;1015;49.756;6.994;2023-02-15T14:03:12;10.70;99.90
2022;DHT22;1015;49.756;6.994;2023-02-15T14:05:51;10.90;99.90
2022;DHT22;1015;49.756;6.994;2023-02-15T14:08:37;11.00;99.90
2022;DHT22;1015;49.756;6.994;2023-02-15T14:11:14;11.10;99.90
2022;DHT22;1015;49.756;6.994;2023-02-15T14:14:00;11.00;99.90
2022;DHT22;1015;49.756;6.994;2023-02-15T14:16:39;11.10;99.90
2022;DHT22;1015;49.756;6.994;2023-02-15T14:19:16;11.10;99.90
2022;DHT22;1015;49.756;6.994;2023-02-15T14:21:53;11.10;99.90
2022;DHT22;1015;49.756;6.994;2023-02-15T14:24:32;11.20;99.90
2022;DHT22;1015;49.756;6.994;2023-02-15T14:27:09;11.20;99.90
2022;DHT22;1015;49.756;6.994;2023-02-15T14:29:49;11.20;99.90
2022;DHT22;1015;49.756;6.994;2023-02-15T14:32:23;11.20;99.90
2022;DHT22;1015;49.756;6.994;2023-02-15T14:34:54;11.20;99.90
2022;DHT22;1015;49.756;6.994;2023-02-15T14:37:30;11.20;99.90
2022;DHT22;1015;49.756;6.994;2023-02-15T14:40:05;11.10;99.90
2022;DHT22;1015;49.756;6.994;2023-02-15T14:42:57;11.10;99.90
2022;DHT22;1015;49.756;6.994;2023-02-15T14:45:30;11.00;99.90
2022;DHT22;1015;49.756;6.994;2023-02-15T14:48:04;11.00;99.90
2022;DHT22;1015;49.756;6.994;2023-02-15T14:50:43;10.90;99.90
2022;DHT22;1015;49.756;6.994;2023-02-15T14:53:35;10.80;99.90
2022;DHT22;1015;49.756;6.994;2023-02-15T14:56:20;10.70;99.90
2022;DHT22;1015;49.756;6.994;2023-02-15T14:59:12;10.60;99.90
2022;DHT22;1015;49.756;6.994;2023-02-15T15:01:41;10.60;99.90
2022;DHT22;1015;49.756;6.994;2023-02-15T15:04:10;10.50;99.90
2022;DHT22;1015;49.756;6.994;2023-02-15T15:06:40;10.50;99.90
2022;DHT22;1015;49.756;6.994;2023-02-15T15:09:12;10.40;99.90
2022;DHT22;1015;49.756;6.994;2023-02-15T15:11:44;10.40;99.90
2022;DHT22;1015;49.756;6.994;2023-02-15T15:14:37;10.30;99.90
2022;DHT22;1015;49.756;6.994;2023-02-15T15:17:05;10.20;99.90
2022;DHT22;1015;49.756;6.994;2023-02-15T15:20:03;10.10;99.90
2022;DHT22;1015;49.756;6.994;2023-02-15T15:22:34;10.00;99.90
2022;DHT22;1015;49.756;6.994;2023-02-15T15:25:02;9.90;99.90
2022;DHT22;1015;49.756;6.994;2023-02-15T15:27:47;9.70;99.90
2022;DHT22;1015;49.756;6.994;2023-02-15T15:30:52;9.60;99.90
2022;DHT22;1015;49.756;6.994;2023-02-15T15:33:42;9.30;99.90
2022;DHT22;1015;49.756;6.994;2023-02-15T15:39:59;9.00;99.90
2022;DHT22;1015;49.756;6.994;2023-02-15T15:42:33;8.90;99.90
2022;DHT22;1015;49.756;6.994;2023-02-15T15:51:11;8.60;99.90
2022;DHT22;1015;49.756;6.994;2023-02-15T15:53:41;8.30;99.90
2022;DHT22;1015;49.756;6.994;2023-02-15T15:56:14;8.30;99.90
2022;DHT22;1015;49.756;6.994;2023-02-15T15:58:44;8.10;99.90
2022;DHT22;1015;49.756;6.994;2023-02-15T16:01:13;7.90;99.90
2022;DHT22;1015;49.756;6.994;2023-02-15T16:03:49;7.80;99.90
2022;DHT22;1015;49.756;6.994;2023-02-15T16:06:29;7.50;99.90
2022;DHT22;1015;49.756;6.994;2023-02-15T16:08:56;7.50;99.90
2022;DHT22;1015;49.756;6.994;2023-02-15T16:11:25;7.30;99.90
2022;DHT22;1015;49.756;6.994;2023-02-15T16:13:52;7.20;99.90
2022;DHT22;1015;49.756;6.994;2023-02-15T16:16:22;7.10;99.90
2022;DHT22;1015;49.756;6.994;2023-02-15T16:18:50;7.10;99.90
2022;DHT22;1015;49.756;6.994;2023-02-15T16:21:21;7.00;99.90
2022;DHT22;1015;49.756;6.994;2023-02-15T16:24:05;6.90;99.90
2022;DHT22;1015;49.756;6.994;2023-02-15T16:26:55;6.70;99.90
2022;DHT22;1015;49.756;6.994;2023-02-15T16:29:28;6.40;99.90
2022;DHT22;1015;49.756;6.994;2023-02-15T16:32:01;6.30;99.90
2022;DHT22;1015;49.756;6.994;2023-02-15T16:34:28;6.30;99.90
2022;DHT22;1015;49.756;6.994;2023-02-15T16:37:14;6.00;99.90
2022;DHT22;1015;49.756;6.994;2023-02-15T16:39:43;5.90;99.90
2022;DHT22;1015;49.756;6.994;2023-02-15T16:42:11;5.70;99.90
2022;DHT22;1015;49.756;6.994;2023-02-15T16:44:40;5.40;99.90
2022;DHT22;1015;49.756;6.994;2023-02-15T16:47:14;5.10;99.90
2022;DHT22;1015;49.756;6.994;2023-02-15T16:49:45;5.00;99.90
2022;DHT22;1015;49.756;6.994;2023-02-15T16:52:15;4.70;99.90
2022;DHT22;1015;49.756;6.994;2023-02-15T16:54:51;4.40;99.90
2022;DHT22;1015;49.756;6.994;2023-02-15T16:57:20;4.20;99.90
2022;DHT22;1015;49.756;6.994;2023-02-15T16:59:50;4.20;99.90